Latest Weather Observations for Leigh Creek

IDS60801

Issued at 2:21 pm CST Monday 23 September 2019 (issued every 10 minutes, with the page automatically refreshed every 10 minutes)

About weather observations | Map of weather stations | Latest weather observations for SA | Other Formats
Station Details ID: 017110 Name: LEIGH CREEK AIRPORT Lat: -30.60 Lon: 138.42 Height: 258.8 m
Data from the previous 72 hours. | See also: Recent months at Leigh Creek
Date/Time
CST
Temp
°C
App
Temp
°C
Dew
Point
°C
Rel
Hum
%
Delta-T
°C
Wind Press
QNH
hPa
Press
MSL
hPa
Rain since
9am
mm
Dir  Spd
km/h
Gust
km/h
Spd
kts
Gust
kts
23/02:00pm 18.7 12.5 -0.2 28 8.3 SSW 22 30 12 16 1028.6 1028.3 0.0
23/01:30pm 18.9 13.0 -1.0 26 8.6 SSW 20 28 11 15 1029.2 1028.8 0.0
23/01:00pm 18.9 13.0 -1.0 26 8.7 SSW 20 30 11 16 1029.6 1029.2 0.0
23/12:30pm 18.2 12.6 1.3 32 7.6 SW 20 35 11 19 1029.8 1029.4 0.0
23/12:00pm 17.3 11.7 1.3 34 7.1 S 20 35 11 19 1029.6 1029.2 0.0
23/11:30am 16.7 11.2 0.8 34 7.0 S 19 33 10 18 1030.1 1029.7 0.0
23/11:00am 16.1 10.5 1.4 37 6.6 SSW 20 30 11 16 1030.7 1030.4 0.0
23/10:30am 15.9 10.9 3.4 43 5.8 SSW 19 28 10 15 1031.2 1030.9 0.0
23/10:00am 14.8 9.7 3.3 46 5.3 S 19 24 10 13 1031.1 1030.8 0.0
23/09:30am 14.4 9.1 3.2 47 5.1 S 20 30 11 16 1031.1 1030.8 0.0
23/09:00am 13.5 9.0 4.4 54 4.2 S 17 24 9 13 1031.3 1031.0 0.0
23/08:30am 12.8 8.8 5.0 59 3.6 SSW 15 19 8 10 1031.4 1031.1 0.0
23/08:00am 11.8 9.1 5.4 65 3.0 SSW 9 17 5 9 1031.2 1030.9 0.0
23/07:30am 10.1 7.6 4.7 69 2.4 SSW 7 13 4 7 1031.0 1030.7 0.0
23/07:00am 8.8 7.1 4.2 73 2.0 SSW 2 9 1 5 1030.8 1030.5 0.0
23/06:30am 7.8 5.4 4.2 78 1.6 SSW 6 9 3 5 1030.5 1030.1 0.0
23/06:00am 7.1 5.4 4.2 82 1.3 SSW 2 7 1 4 1030.0 1029.6 0.0
23/05:30am 6.4 4.9 3.0 79 1.4 CALM 0 0 0 0 1029.7 1029.3 0.0
23/05:00am 7.3 4.2 3.5 77 1.6 SSW 9 11 5 6 1029.3 1028.9 0.0
23/04:30am 8.1 4.3 3.8 74 1.9 SSW 13 15 7 8 1029.1 1028.7 0.0
23/04:00am 8.6 4.4 3.6 71 2.2 SSW 15 17 8 9 1028.9 1028.5 0.0
23/03:30am 9.3 4.7 3.7 68 2.5 SSW 17 20 9 11 1028.6 1028.3 0.0
23/03:00am 9.7 5.5 3.7 66 2.6 SSW 15 19 8 10 1028.6 1028.3 0.0
23/02:30am 10.1 5.5 3.6 64 2.9 S 17 19 9 10 1028.8 1028.4 0.0
23/02:00am 10.5 5.9 3.5 62 3.1 S 17 19 9 10 1029.0 1028.6 0.0
23/01:30am 10.7 6.1 3.5 61 3.2 S 17 17 9 9 1029.2 1028.8 0.0
23/01:00am 10.9 6.6 3.2 59 3.4 S 15 17 8 9 1029.1 1028.7 0.0
23/12:30am 11.4 7.0 2.9 56 3.7 S 15 19 8 10 1029.0 1028.6 0.0
23/12:00am 12.3 7.6 3.0 53 4.1 SSW 17 22 9 12 1029.0 1028.6 0.0
 
Date/Time
CST
Temp
°C
App
Temp
°C
Dew
Point
°C
Rel
Hum
%
Delta-T
°C
Wind Press
QNH
hPa
Press
MSL
hPa
Rain since
9am
mm
Dir  Spd
km/h
Gust
km/h
Spd
kts
Gust
kts
22/11:30pm 11.9 8.2 2.1 51 4.2 SSW 11 17 6 9 1029.1 1028.7 0.0
22/11:00pm 11.9 8.1 1.8 50 4.4 SW 11 13 6 7 1029.2 1028.8 0.0
22/10:30pm 12.6 8.4 1.9 48 4.6 SSW 13 17 7 9 1028.9 1028.5 0.0
22/10:00pm 12.2 8.4 1.8 49 4.5 SSW 11 15 6 8 1028.9 1028.5 0.0
22/09:30pm 12.7 8.5 1.7 47 4.8 SSW 13 15 7 8 1028.8 1028.4 0.0
22/09:00pm 13.1 8.9 1.8 46 4.9 SSW 13 15 7 8 1028.3 1028.0 0.0
22/08:30pm 13.8 9.2 1.5 43 5.3 SSW 15 19 8 10 1028.1 1027.8 0.0
22/08:00pm 14.7 9.6 0.5 38 6.1 SSW 17 22 9 12 1027.8 1027.5 0.0
22/07:30pm 15.1 10.2 -0.2 35 6.5 SW 15 20 8 11 1027.4 1027.1 0.0
22/07:00pm 15.9 10.7 0.1 34 6.8 SW 17 22 9 12 1027.0 1026.6 0.0
22/06:30pm 16.3 11.0 -0.4 32 7.1 WSW 17 24 9 13 1026.5 1026.1 0.0
22/06:00pm 16.9 11.3 -0.3 31 7.4 WSW 19 26 10 14 1026.3 1025.9 0.0
22/05:30pm 17.6 11.8 -0.2 30 7.7 W 20 33 11 18 1026.1 1025.7 0.0
22/05:00pm 17.8 12.0 0.0 30 7.8 WSW 20 32 11 17 1026.0 1025.6 0.0
22/04:30pm 17.8 11.6 -0.5 29 7.9 W 22 41 12 22 1025.9 1025.5 0.0
22/04:00pm 18.0 12.2 0.2 30 7.9 WSW 20 28 11 15 1026.0 1025.6 0.0
22/03:30pm 18.4 12.7 -0.4 28 8.2 SW 19 32 10 17 1026.1 1025.7 0.0
22/03:00pm 17.8 12.2 1.3 33 7.4 SW 20 37 11 20 1026.2 1025.8 0.0
22/02:30pm 17.9 13.7 1.4 33 7.4 WSW 13 24 7 13 1026.5 1026.1 0.0
22/02:00pm 16.7 11.0 0.8 34 7.0 WSW 20 28 11 15 1026.7 1026.3 0.0
22/01:30pm 17.3 11.9 1.3 34 7.1 WSW 19 30 10 16 1026.9 1026.5 0.0
22/01:00pm 16.5 11.1 1.0 35 6.9 WSW 19 39 10 21 1027.6 1027.3 0.0
22/12:30pm 16.7 11.0 0.4 33 7.1 W 20 33 11 18 1027.7 1027.4 0.0
22/12:00pm 16.5 11.1 1.0 35 6.8 W 19 30 10 16 1027.8 1027.5 0.0
22/11:30am 15.8 10.2 0.0 34 6.8 SW 19 28 10 15 1028.0 1027.7 0.0
22/11:00am 15.6 10.8 0.2 35 6.7 SW 15 30 8 16 1028.1 1027.8 0.0
22/10:30am 15.4 10.9 1.9 40 6.0 SSW 15 28 8 15 1028.2 1027.9 0.0
22/10:00am 14.2 10.9 2.5 45 5.3 S 9 17 5 9 1028.3 1028.0 0.0
22/09:30am 13.5 10.5 1.8 45 5.1 WSW 7 22 4 12 1028.4 1028.1 0.0
22/09:00am 12.6 9.3 2.7 51 4.4 SSE 9 15 5 8 1028.2 1027.9 0.2
22/08:30am 11.9 9.0 4.4 60 3.4 SE 9 11 5 6 1028.1 1027.8 0.2
22/08:00am 10.6 8.4 5.2 69 2.5 S 6 7 3 4 1028.0 1027.7 0.2
22/07:30am 7.7 5.2 4.7 81 1.3 S 7 9 4 5 1027.5 1027.2 0.2
22/07:00am 6.1 3.6 4.7 91 0.6 S 7 7 4 4 1027.1 1026.7 0.2
22/06:30am 5.2 2.2 3.9 91 0.6 S 9 11 5 6 1026.7 1026.3 0.2
22/06:00am 5.1 2.0 3.6 90 0.6 S 9 11 5 6 1026.5 1026.1 0.2
22/05:30am 5.4 2.3 3.7 89 0.7 S 9 9 5 5 1026.0 1025.6 0.2
22/05:00am 5.7 2.6 3.7 87 0.9 S 9 11 5 6 1025.5 1025.1 0.2
22/04:30am 6.2 3.5 3.9 85 1.0 S 7 9 4 5 1025.2 1024.8 0.2
22/04:00am 6.7 5.5 4.4 85 1.0 CALM 0 6 0 3 1024.8 1024.4 0.2
22/03:30am 6.6 4.2 4.3 85 1.0 S 6 7 3 4 1024.7 1024.3 0.2
22/03:00am 7.0 4.4 4.3 83 1.2 S 7 9 4 5 1024.8 1024.4 0.2
22/02:30am 7.4 4.5 4.9 84 1.1 S 9 11 5 6 1024.8 1024.4 0.2
22/02:00am 7.2 4.3 4.5 83 1.2 S 9 11 5 6 1024.9 1024.5 0.2
22/01:30am 7.9 5.0 4.7 80 1.4 S 9 11 5 6 1024.9 1024.5 0.2
22/01:00am 8.0 5.4 4.4 78 1.6 S 7 7 4 4 1025.1 1024.7 0.2
22/12:30am 8.4 5.4 4.2 75 1.9 S 9 11 5 6 1025.2 1024.8 0.2
22/12:00am 9.0 6.0 4.0 71 2.2 S 9 13 5 7 1025.1 1024.7 0.2
 
Date/Time
CST
Temp
°C
App
Temp
°C
Dew
Point
°C
Rel
Hum
%
Delta-T
°C
Wind Press
QNH
hPa
Press
MSL
hPa
Rain since
9am
mm
Dir  Spd
km/h
Gust
km/h
Spd
kts
Gust
kts
21/11:30pm 9.3 6.6 3.9 69 2.4 SSE 7 11 4 6 1025.0 1024.6 0.2
21/11:00pm 9.5 6.9 3.3 65 2.7 SSE 6 9 3 5 1024.8 1024.4 0.2
21/10:30pm 10.8 6.9 3.4 60 3.3 SSW 13 20 7 11 1024.5 1024.2 0.2
21/10:00pm 11.4 6.6 2.4 54 3.9 SW 17 20 9 11 1024.4 1024.1 0.2
21/09:30pm 11.6 7.0 1.3 49 4.4 SW 15 19 8 10 1024.2 1023.9 0.2
21/09:00pm 12.3 7.6 1.0 46 4.8 SW 15 19 8 10 1024.1 1023.8 0.2
21/08:30pm 12.5 7.9 1.5 47 4.7 SW 15 17 8 9 1023.9 1023.6 0.2
21/08:00pm 13.0 8.7 1.0 44 5.2 SW 13 20 7 11 1023.6 1023.2 0.2
21/07:30pm 13.4 8.7 0.8 42 5.4 WSW 15 20 8 11 1023.2 1022.8 0.2
21/07:00pm 13.8 9.1 1.1 42 5.5 WSW 15 20 8 11 1022.8 1022.4 0.2
21/06:30pm 14.5 9.0 0.4 38 6.0 SW 19 24 10 13 1022.5 1022.1 0.2
21/06:00pm 14.8 9.3 0.6 38 6.1 SW 19 24 10 13 1022.2 1021.8 0.2
21/05:30pm 15.4 9.9 0.8 37 6.4 SW 19 24 10 13 1022.0 1021.6 0.2
21/05:00pm 15.2 10.6 1.4 39 6.1 SW 15 20 8 11 1021.7 1021.3 0.2
21/04:30pm 15.5 10.2 1.6 39 6.2 SW 19 26 10 14 1021.6 1021.2 0.2
21/04:00pm 16.3 11.2 3.0 41 6.1 W 19 28 10 15 1021.6 1021.2 0.2
21/03:30pm 15.8 10.6 2.2 40 6.1 SW 19 28 10 15 1021.4 1021.0 0.2
21/03:00pm 16.2 10.4 2.2 39 6.3 W 22 32 12 17 1021.6 1021.2 0.2
21/02:30pm 15.4 10.4 1.5 39 6.1 SW 17 26 9 14 1021.5 1021.1 0.2
21/02:00pm 14.8 9.7 3.9 48 5.1 WSW 20 26 11 14 1021.8 1021.4 0.2
21/01:30pm 14.3 10.6 4.6 52 4.5 WSW 13 20 7 11 1021.9 1021.5 0.2
21/01:00pm 13.9 9.1 4.5 53 4.4 SSW 19 30 10 16 1021.9 1021.5 0.2
21/12:30pm 14.5 9.7 4.8 52 4.6 SW 19 30 10 16 1022.0 1021.6 0.2
21/12:00pm 13.4 9.0 4.8 56 4.0 SSW 17 26 9 14 1022.0 1021.6 0.2
21/11:30am 13.2 8.4 5.4 59 3.7 SSW 20 35 11 19 1021.8 1021.4 0.2
21/11:00am 12.5 7.0 5.7 63 3.2 SSW 24 33 13 18 1021.6 1021.2 0.2
21/10:30am 12.6 6.4 6.0 64 3.1 SSW 28 39 15 21 1021.7 1021.3 0.0
21/10:00am 11.3 5.1 6.0 70 2.5 SSW 28 37 15 20 1021.6 1021.2 0.0
21/09:30am 10.6 4.0 6.0 73 2.2 SW 30 37 16 20 1021.8 1021.4 0.0
21/09:00am 10.3 4.2 6.6 78 1.8 SW 28 39 15 21 1021.4 1021.0 5.6
21/08:30am 10.2 4.5 6.5 78 1.7 SW 26 35 14 19 1020.3 1019.9 5.6
21/08:00am 9.3 4.6 5.9 79 1.6 SW 20 30 11 16 1020.3 1019.9 5.6
21/07:30am 8.6 3.0 5.5 81 1.4 SW 24 33 13 18 1020.1 1019.7 5.6
21/07:00am 8.3 3.7 5.6 83 1.2 WSW 19 26 10 14 1019.5 1019.1 5.6
21/06:30am 7.6 2.4 5.6 87 0.9 SW 22 32 12 17 1018.8 1018.4 5.6
21/06:00am 7.3 3.5 5.6 89 0.8 S 15 20 8 11 1018.3 1017.9 5.6
21/05:30am 7.6 4.6 6.1 90 0.7 SSE 11 17 6 9 1018.0 1017.6 5.6
21/05:00am 7.5 4.8 5.6 88 0.9 SSE 9 19 5 10 1017.8 1017.4 5.6
21/04:30am 8.1 3.5 5.4 83 1.2 SSW 19 28 10 15 1017.1 1016.6 5.6
21/04:00am 8.4 2.0 5.3 81 1.4 SW 28 35 15 19 1016.7 1016.2 5.6
21/03:30am 8.7 2.8 6.0 83 1.2 SW 26 35 14 19 1016.2 1015.8 5.6
21/03:00am 9.0 2.1 6.3 83 1.3 SW 32 43 17 23 1015.9 1015.5 5.6
21/02:30am 9.0 2.9 6.8 86 1.0 SW 28 39 15 21 1016.1 1015.7 5.6
21/02:00am 9.0 3.4 7.1 88 0.9 SW 26 35 14 19 1016.1 1015.7 5.6
21/01:30am 9.0 2.9 6.6 85 1.1 SW 28 35 15 19 1016.3 1015.9 5.6
21/01:00am 9.2 4.1 7.5 89 0.8 SW 24 39 13 21 1016.3 1015.9 5.6
21/12:30am 9.5 3.6 8.9 96 0.3 SW 30 43 16 23 1016.1 1015.7 5.6
21/12:00am 9.6 2.4 9.3 98 0.2 SW 37 48 20 26 1015.7 1015.3 5.6
 
Date/Time
CST
Temp
°C
App
Temp
°C
Dew
Point
°C
Rel
Hum
%
Delta-T
°C
Wind Press
QNH
hPa
Press
MSL
hPa
Rain since
9am
mm
Dir  Spd
km/h
Gust
km/h
Spd
kts
Gust
kts
20/11:30pm 9.6 3.2 9.5 99 0.1 SW 33 43 18 23 1015.3 1014.9 5.6
20/11:00pm 9.8 4.5 9.7 99 0.1 SSW 28 37 15 20 1015.5 1015.1 5.6
20/10:30pm 9.9 4.2 9.8 99 0.1 SSW 30 41 16 22 1015.3 1014.9 5.6
20/10:00pm 9.9 3.8 9.8 99 0.1 SSW 32 46 17 25 1015.1 1014.7 5.6
20/09:30pm 10.0 5.5 9.9 99 0.1 SW 24 39 13 21 1015.4 1015.0 5.4
20/09:24pm 10.0 3.9 9.9 99 0.1 SW 32 50 17 27 1015.1 1014.7 5.2
20/09:00pm 10.1 4.4 9.8 98 0.2 SW 30 43 16 23 1015.2 1014.8 3.2
20/08:39pm 10.2 2.8 9.7 97 0.3 SW 39 56 21 30 1015.7 1015.3 1.8
20/08:30pm 10.3 3.6 9.7 96 0.3 SW 35 52 19 28 1014.8 1014.4 1.4
20/08:27pm 10.4 4.7 9.8 96 0.3 WSW 30 46 16 25 1014.9 1014.5 1.4
20/08:17pm 10.4 4.3 9.9 97 0.3 SW 32 48 17 26 1015.5 1015.1 1.2
20/08:00pm 10.6 3.7 10.3 98 0.2 SSW 37 52 20 28 1014.4 1014.0 1.2
20/07:30pm 10.6 3.6 9.8 95 0.4 SSW 37 48 20 26 1014.3 1013.9 0.8
20/07:14pm 10.6 2.8 9.7 94 0.5 SSW 41 59 22 32 1014.4 1014.0 0.6
20/07:00pm 10.6 2.3 9.5 93 0.6 SSW 43 57 23 31 1013.9 1013.4 0.4
20/06:30pm 11.9 4.4 10.8 93 0.6 SSW 41 52 22 28 1014.2 1013.8 0.2
20/06:13pm 12.1 3.8 10.2 88 1.0 SSW 44 63 24 34 1013.6 1013.1 0.0
20/06:00pm 12.8 4.2 10.2 84 1.4 SSW 46 61 25 33 1013.4 1012.9 0.0
20/05:30pm 14.9 5.7 9.5 70 2.8 SW 48 67 26 36 1013.1 1012.6 0.0
20/05:26pm 15.0 5.8 9.4 69 2.9 SW 48 67 26 36 1012.8 1012.3 0.0
20/05:20pm 15.2 7.3 9.3 68 3.1 SW 41 61 22 33 1012.5 1012.0 0.0
20/05:00pm 16.6 8.0 8.8 60 4.1 SW 44 69 24 37 1012.3 1011.9 0.0
20/04:57pm 16.9 8.3 8.8 59 4.2 SW 44 69 24 37 1012.3 1011.9 0.0
20/04:56pm 17.0 8.4 8.7 58 4.3 SW 44 69 24 37 1012.2 1011.8 0.0
20/04:30pm 18.8 10.0 7.3 47 5.9 SSW 43 61 23 33 1011.2 1010.8 0.0
20/04:00pm 19.3 11.2 7.1 45 6.2 SW 39 63 21 34 1011.1 1010.7 0.0
20/03:44pm 19.9 11.7 6.6 42 6.8 SSW 39 61 21 33 1011.3 1010.9 0.0
20/03:30pm 20.1 11.0 6.1 40 7.1 SSW 43 59 23 32 1009.3 1008.8 0.0
20/03:00pm 21.7 12.7 4.7 33 8.5 SSW 41 56 22 30 1009.6 1009.1 0.0
20/02:30pm 24.0 16.4 2.8 25 10.4 SW 32 48 17 26 1009.5 1009.0 0.0

Other formats

Comma delimited format used in spreadsheet applications
http://www.bom.gov.au/fwo/IDS60801/IDS60801.94674.axf

JavaScript Object Notation format (JSON) in row-major order
http://www.bom.gov.au/fwo/IDS60801/IDS60801.94674.json

Data quality

Most of these data are generated automatically and are frequently updated. Quality checks on data are not normally performed. It is possible for incorrect values to appear. Refer to information at About Latest Weather Observations and please check the disclaimer before using these data.